createdAt,value
2023-02-06T00:01:41.071Z,5.87
2023-02-06T00:04:09.145Z,7.93
2023-02-06T00:06:36.840Z,9.18
2023-02-06T00:09:05.876Z,6.43
2023-02-06T00:11:34.165Z,6.65
2023-02-06T00:14:01.693Z,7.22
2023-02-06T00:16:33.538Z,5.53
2023-02-06T00:19:02.035Z,7.43
2023-02-06T00:21:30.381Z,10.02
2023-02-06T00:23:59.839Z,7.25
2023-02-06T00:26:28.011Z,6.37
2023-02-06T00:28:55.664Z,6.72
2023-02-06T00:31:24.967Z,8.02
2023-02-06T00:33:53.010Z,5.93
2023-02-06T00:36:20.891Z,7.70
2023-02-06T00:38:48.480Z,6.43
2023-02-06T00:41:16.534Z,8.18
2023-02-06T00:43:44.510Z,9.88
2023-02-06T00:46:12.264Z,8.90
2023-02-06T00:48:40.327Z,5.87
2023-02-06T00:51:07.999Z,10.88
2023-02-06T00:53:38.086Z,5.53
2023-02-06T00:56:06.289Z,10.32
2023-02-06T00:58:34.542Z,6.18
2023-02-06T01:01:02.260Z,7.57
2023-02-06T01:03:30.363Z,5.25
2023-02-06T01:05:58.059Z,6.62
2023-02-06T01:08:25.925Z,9.02
2023-02-06T01:10:54.074Z,7.85
2023-02-06T01:13:22.004Z,7.82
2023-02-06T01:15:51.213Z,9.73
2023-02-06T01:18:19.326Z,5.43
2023-02-06T01:20:46.914Z,6.28
2023-02-06T01:23:14.559Z,8.90
2023-02-06T01:25:42.565Z,7.78
2023-02-06T01:28:10.194Z,6.90
2023-02-06T01:30:39.151Z,8.63
2023-02-06T01:33:07.108Z,7.15
2023-02-06T01:35:35.386Z,5.78
2023-02-06T01:38:03.074Z,5.65
2023-02-06T01:40:31.093Z,7.50
2023-02-06T01:42:58.674Z,6.47
2023-02-06T01:45:26.181Z,9.68
2023-02-06T01:48:00.898Z,5.70
2023-02-06T01:50:31.107Z,4.80
2023-02-06T01:52:59.498Z,8.30
2023-02-06T01:55:27.236Z,7.18
2023-02-06T01:57:54.972Z,5.85
2023-02-06T02:00:23.258Z,6.10
2023-02-06T02:02:51.251Z,6.10
2023-02-06T02:05:19.747Z,6.97
2023-02-06T02:07:55.010Z,4.30
2023-02-06T02:10:22.987Z,4.40
2023-02-06T02:12:50.633Z,4.60
2023-02-06T02:15:18.363Z,5.68
2023-02-06T02:18:26.464Z,8.07
2023-02-06T02:21:28.414Z,8.35
2023-02-06T02:24:10.260Z,3.75
2023-02-06T02:27:15.259Z,5.10
2023-02-06T02:30:18.895Z,4.03
2023-02-06T02:32:52.959Z,7.00
2023-02-06T02:36:11.301Z,5.25
2023-02-06T02:39:20.056Z,6.05
2023-02-06T02:42:04.187Z,6.03
2023-02-06T02:44:46.950Z,4.53
2023-02-06T02:47:18.145Z,5.03
2023-02-06T02:49:48.608Z,5.60
2023-02-06T02:52:16.531Z,7.55
2023-02-06T02:54:44.219Z,5.37
2023-02-06T02:57:22.759Z,5.37
2023-02-06T02:59:51.985Z,8.75
2023-02-06T03:02:25.623Z,5.95
2023-02-06T03:04:58.617Z,5.90
2023-02-06T03:07:45.222Z,6.20
2023-02-06T03:10:22.063Z,9.95
2023-02-06T03:13:03.584Z,4.15
2023-02-06T03:15:41.718Z,6.78
2023-02-06T03:18:21.409Z,6.97
2023-02-06T03:20:50.871Z,6.68
2023-02-06T03:23:24.429Z,4.93
2023-02-06T03:25:55.985Z,5.28
2023-02-06T03:28:28.029Z,5.95
2023-02-06T03:31:00.252Z,6.87
2023-02-06T03:33:34.258Z,6.72
2023-02-06T03:36:05.450Z,7.18
2023-02-06T03:38:33.332Z,6.80
2023-02-06T03:41:02.120Z,5.75
2023-02-06T03:43:30.742Z,8.73
2023-02-06T03:46:03.213Z,5.28
2023-02-06T03:48:39.753Z,5.72
2023-02-06T03:51:40.849Z,6.55
2023-02-06T03:54:11.760Z,4.53
2023-02-06T03:57:02.247Z,8.57
2023-02-06T03:59:31.271Z,5.93
2023-02-06T04:02:02.841Z,5.53
2023-02-06T04:04:41.999Z,5.87
2023-02-06T04:07:30.992Z,4.12
2023-02-06T04:09:59.078Z,5.82
2023-02-06T04:12:27.656Z,9.27
2023-02-06T04:14:55.776Z,9.10
2023-02-06T04:17:40.690Z,11.15
2023-02-06T04:20:11.597Z,11.50
2023-02-06T04:22:41.337Z,6.93
2023-02-06T04:25:08.935Z,8.70
2023-02-06T04:27:37.317Z,9.30
2023-02-06T04:30:06.388Z,5.22
2023-02-06T04:32:34.330Z,6.03
2023-02-06T04:35:02.096Z,7.45
2023-02-06T04:37:30.905Z,7.43
2023-02-06T04:39:59.568Z,6.68
2023-02-06T04:42:27.502Z,5.87
2023-02-06T04:44:55.460Z,5.30
2023-02-06T04:47:23.004Z,4.87
2023-02-06T04:49:50.715Z,8.05
2023-02-06T04:52:18.623Z,6.00
2023-02-06T04:54:46.221Z,5.00
2023-02-06T04:57:13.805Z,7.30
2023-02-06T04:59:41.803Z,5.25
2023-02-06T05:02:09.419Z,4.37
2023-02-06T05:04:38.995Z,5.12
2023-02-06T05:07:06.983Z,5.78
2023-02-06T05:09:34.686Z,5.07
2023-02-06T05:12:03.141Z,6.75
2023-02-06T05:14:31.350Z,8.30
2023-02-06T05:16:58.956Z,4.72
2023-02-06T05:19:26.588Z,5.47
2023-02-06T05:21:54.858Z,8.07
2023-02-06T05:24:22.518Z,4.43
2023-02-06T05:26:50.196Z,4.40
2023-02-06T05:29:18.053Z,4.55
2023-02-06T05:31:45.988Z,7.20
2023-02-06T05:34:13.635Z,6.68
2023-02-06T05:36:41.570Z,6.18
2023-02-06T05:39:09.359Z,7.15
2023-02-06T05:41:36.989Z,6.62
2023-02-06T05:44:05.101Z,6.37
2023-02-06T05:46:33.055Z,7.97
2023-02-06T05:49:01.168Z,8.38
2023-02-06T05:51:29.003Z,6.93
2023-02-06T05:53:56.629Z,8.15
2023-02-06T05:56:24.196Z,7.53
2023-02-06T05:58:52.150Z,5.78
2023-02-06T06:01:20.290Z,4.93
2023-02-06T06:03:48.253Z,5.37
2023-02-06T06:06:16.068Z,9.05
2023-02-06T06:08:43.636Z,6.35
2023-02-06T06:11:11.675Z,8.88
2023-02-06T06:13:39.283Z,6.87
2023-02-06T06:16:07.079Z,5.32
2023-02-06T06:18:35.177Z,6.53
2023-02-06T06:21:02.753Z,4.22
2023-02-06T06:23:30.568Z,6.62
2023-02-06T06:25:58.487Z,6.37
2023-02-06T06:28:26.083Z,6.03
2023-02-06T06:31:04.307Z,7.65
2023-02-06T06:33:32.763Z,7.15
2023-02-06T06:36:00.665Z,6.95
2023-02-06T06:38:28.524Z,6.18
2023-02-06T06:40:56.410Z,8.82
2023-02-06T06:43:24.130Z,5.97
2023-02-06T06:45:51.900Z,5.37
2023-02-06T06:48:19.937Z,6.20
2023-02-06T06:50:50.376Z,7.45
2023-02-06T06:53:18.522Z,6.05
2023-02-06T06:55:46.455Z,6.87
2023-02-06T06:58:14.642Z,7.90
2023-02-06T07:00:42.260Z,5.40
2023-02-06T07:03:11.803Z,4.28
2023-02-06T07:05:39.833Z,5.45
2023-02-06T07:08:07.580Z,5.53
2023-02-06T07:10:36.053Z,6.45
2023-02-06T07:13:03.808Z,6.70
2023-02-06T07:15:31.679Z,7.72
2023-02-06T07:17:59.782Z,8.55
2023-02-06T07:20:27.799Z,6.03
2023-02-06T07:22:55.390Z,6.75
2023-02-06T07:25:23.420Z,6.10
2023-02-06T07:27:51.061Z,5.37
2023-02-06T07:30:18.978Z,7.37
2023-02-06T07:32:47.454Z,7.70
2023-02-06T07:35:15.372Z,8.20
2023-02-06T07:37:43.036Z,7.43
2023-02-06T07:40:11.704Z,11.32
2023-02-06T07:42:40.294Z,8.15
2023-02-06T07:45:08.987Z,10.38
2023-02-06T07:47:36.942Z,6.82
2023-02-06T07:50:06.928Z,7.82
2023-02-06T07:52:34.931Z,10.82
2023-02-06T07:55:03.064Z,6.95
2023-02-06T07:57:30.760Z,7.50
2023-02-06T07:59:58.438Z,6.68
2023-02-06T08:02:26.377Z,8.02
2023-02-06T08:04:54.267Z,6.62
2023-02-06T08:07:21.901Z,9.82
2023-02-06T08:09:49.501Z,9.48
2023-02-06T08:12:17.426Z,8.10
2023-02-06T08:14:45.891Z,7.62
2023-02-06T08:17:13.765Z,8.55
2023-02-06T08:19:42.138Z,8.52
2023-02-06T08:22:09.670Z,9.52
2023-02-06T08:24:37.235Z,8.25
2023-02-06T08:27:07.140Z,10.65
2023-02-06T08:29:42.640Z,13.70
2023-02-06T08:32:11.365Z,10.23
2023-02-06T08:34:40.468Z,8.45
2023-02-06T08:37:08.293Z,7.37
2023-02-06T08:39:36.384Z,18.70
2023-02-06T08:42:04.134Z,14.93
2023-02-06T08:44:32.208Z,9.98
2023-02-06T08:47:09.728Z,9.05
2023-02-06T08:49:38.476Z,8.73
2023-02-06T08:52:06.355Z,8.43
2023-02-06T08:54:36.341Z,9.57
2023-02-06T08:57:06.705Z,8.30
2023-02-06T08:59:35.705Z,11.85
2023-02-06T09:02:03.388Z,8.07
2023-02-06T09:04:31.928Z,9.88
2023-02-06T09:06:59.810Z,11.98
2023-02-06T09:09:27.539Z,8.85
2023-02-06T09:11:56.298Z,10.13
2023-02-06T09:14:24.196Z,10.48
2023-02-06T09:16:51.959Z,7.87
2023-02-06T09:19:19.552Z,9.70
2023-02-06T09:21:47.510Z,10.98
2023-02-06T09:24:15.104Z,11.23
2023-02-06T09:26:58.591Z,10.73
2023-02-06T09:29:32.068Z,8.90
2023-02-06T09:32:00.745Z,10.68
2023-02-06T09:34:28.916Z,10.75
2023-02-06T09:36:57.885Z,10.18
2023-02-06T09:39:25.935Z,7.85
2023-02-06T09:42:05.515Z,11.02
2023-02-06T09:44:38.968Z,9.90
2023-02-06T09:47:32.215Z,8.82
2023-02-06T09:50:05.569Z,10.13
2023-02-06T09:52:59.876Z,11.38
2023-02-06T09:55:36.599Z,7.90
2023-02-06T09:58:23.306Z,9.73
2023-02-06T10:01:00.500Z,9.60
2023-02-06T10:03:40.324Z,9.93
2023-02-06T10:06:19.797Z,8.63
2023-02-06T10:08:58.137Z,10.25
2023-02-06T10:11:40.581Z,10.15
2023-02-06T10:14:31.918Z,7.50
2023-02-06T10:17:12.171Z,9.35
2023-02-06T10:19:50.970Z,9.50
2023-02-06T10:22:26.977Z,9.50
2023-02-06T10:25:13.543Z,7.00
2023-02-06T10:27:44.592Z,7.37
2023-02-06T10:30:47.147Z,10.43
2023-02-06T10:33:27.991Z,10.00
2023-02-06T10:36:07.700Z,11.02
2023-02-06T10:39:10.283Z,9.13
2023-02-06T10:41:55.146Z,8.80
2023-02-06T10:44:48.486Z,7.37
2023-02-06T10:47:39.306Z,9.02
2023-02-06T10:50:39.489Z,8.52
2023-02-06T10:53:26.562Z,6.85
2023-02-06T10:56:00.848Z,9.40
2023-02-06T10:58:39.942Z,10.07
2023-02-06T11:01:24.657Z,9.65
2023-02-06T11:04:05.526Z,11.07
2023-02-06T11:06:33.495Z,7.78
2023-02-06T11:09:01.691Z,9.15
2023-02-06T11:11:32.213Z,7.70
2023-02-06T11:14:25.303Z,9.55
2023-02-06T11:16:53.665Z,6.80
2023-02-06T11:19:27.342Z,7.65
2023-02-06T11:22:07.406Z,8.13
2023-02-06T11:24:36.425Z,6.97
2023-02-06T11:27:14.832Z,6.43
2023-02-06T11:29:51.647Z,12.70
2023-02-06T11:32:41.473Z,6.95
2023-02-06T11:35:33.429Z,8.70
2023-02-06T11:38:29.548Z,7.80
2023-02-06T11:41:18.849Z,9.63
2023-02-06T11:43:51.772Z,7.00
2023-02-06T11:46:26.898Z,8.10
2023-02-06T11:48:54.740Z,8.07
2023-02-06T11:51:44.247Z,8.30
2023-02-06T11:54:29.812Z,7.80
2023-02-06T11:57:03.168Z,7.35
2023-02-06T11:59:34.647Z,6.93
2023-02-06T12:04:38.239Z,7.03
2023-02-06T12:07:08.808Z,8.10
2023-02-06T12:09:36.961Z,7.22
2023-02-06T12:12:22.874Z,10.13
2023-02-06T12:15:55.441Z,7.50
2023-02-06T12:18:27.206Z,9.52
2023-02-06T12:20:59.445Z,6.70
2023-02-06T12:23:44.853Z,10.98
2023-02-06T12:26:20.933Z,5.50
2023-02-06T12:29:03.177Z,7.55
2023-02-06T12:31:32.145Z,6.93
2023-02-06T12:34:19.830Z,9.98
2023-02-06T12:36:58.843Z,6.07
2023-02-06T12:39:33.073Z,7.85
2023-02-06T12:42:18.560Z,7.85
2023-02-06T12:44:46.040Z,8.80
2023-02-06T12:47:24.766Z,8.70
2023-02-06T12:50:00.288Z,6.68
2023-02-06T12:52:59.334Z,6.68
2023-02-06T12:55:35.741Z,7.65
2023-02-06T12:58:05.225Z,6.97
2023-02-06T13:00:49.609Z,5.65
2023-02-06T13:03:31.138Z,7.93
2023-02-06T13:06:02.561Z,6.93
2023-02-06T13:08:36.482Z,6.72
2023-02-06T13:11:08.157Z,8.27
2023-02-06T13:13:38.902Z,10.32
2023-02-06T13:16:07.949Z,7.00
2023-02-06T13:18:42.031Z,8.60
2023-02-06T13:21:28.742Z,8.20
2023-02-06T13:24:02.714Z,10.38
2023-02-06T13:26:56.544Z,6.57
2023-02-06T13:29:26.403Z,7.65
2023-02-06T13:32:12.507Z,8.18
2023-02-06T13:34:43.381Z,6.93
2023-02-06T13:37:25.956Z,6.93
2023-02-06T13:40:21.031Z,8.18
2023-02-06T13:43:03.560Z,6.53
2023-02-06T13:45:31.421Z,8.45
2023-02-06T13:48:17.679Z,7.00
2023-02-06T13:51:05.225Z,7.00
2023-02-06T13:53:43.749Z,10.80
2023-02-06T13:56:31.864Z,10.27
2023-02-06T13:59:06.452Z,7.90
2023-02-06T14:01:34.635Z,7.47
2023-02-06T14:04:09.125Z,6.90
2023-02-06T14:07:13.422Z,9.20
2023-02-06T14:09:56.498Z,7.35
2023-02-06T14:12:38.870Z,9.30
2023-02-06T14:15:28.726Z,11.60
2023-02-06T14:18:35.120Z,7.55
2023-02-06T14:21:12.188Z,7.97
2023-02-06T14:24:17.983Z,7.53
2023-02-06T14:26:53.122Z,9.00
2023-02-06T14:29:49.462Z,11.10
2023-02-06T14:32:26.185Z,6.40
2023-02-06T14:34:56.501Z,8.63
2023-02-06T14:37:57.193Z,8.50
2023-02-06T14:40:28.450Z,11.70
2023-02-06T14:43:04.336Z,10.48
2023-02-06T14:45:41.650Z,8.18
2023-02-06T14:48:49.582Z,10.02
2023-02-06T14:51:42.560Z,13.90
2023-02-06T14:54:32.793Z,10.20
2023-02-06T14:57:05.775Z,10.52
2023-02-06T14:59:34.764Z,8.25
2023-02-06T15:02:13.775Z,9.68
2023-02-06T15:04:47.315Z,8.80
2023-02-06T15:07:43.963Z,14.32
2023-02-06T15:10:15.396Z,10.52
2023-02-06T15:12:51.470Z,9.98
2023-02-06T15:15:31.761Z,7.60
2023-02-06T15:17:59.308Z,10.43
2023-02-06T15:20:35.413Z,10.73
2023-02-06T15:23:27.803Z,10.23
2023-02-06T15:26:29.746Z,10.40
2023-02-06T15:28:59.700Z,9.23
2023-02-06T15:31:29.280Z,9.77
2023-02-06T15:33:59.338Z,10.90
2023-02-06T15:36:38.751Z,13.18
2023-02-06T15:39:08.060Z,9.40
2023-02-06T15:41:37.201Z,9.70
2023-02-06T15:44:12.374Z,9.35
2023-02-06T15:46:41.037Z,12.10
2023-02-06T15:49:33.057Z,13.02
2023-02-06T15:52:02.028Z,11.07
2023-02-06T15:54:30.030Z,7.95
2023-02-06T15:57:22.341Z,14.82
2023-02-06T15:59:54.481Z,11.52
2023-02-06T16:02:34.956Z,8.20
2023-02-06T16:05:04.598Z,14.87
2023-02-06T16:07:36.002Z,8.95
2023-02-06T16:10:28.742Z,17.48
2023-02-06T16:13:00.145Z,17.30
2023-02-06T16:18:00.080Z,16.35
2023-02-06T16:20:42.246Z,15.65
2023-02-06T16:23:24.079Z,20.95
2023-02-06T16:26:04.327Z,25.85
2023-02-06T16:28:32.039Z,20.70
2023-02-06T16:31:04.526Z,29.33
2023-02-06T16:33:39.959Z,28.90
2023-02-06T16:36:11.798Z,25.80
2023-02-06T16:41:25.216Z,42.50
2023-02-06T16:43:54.470Z,25.95
2023-02-06T16:46:22.306Z,21.80
2023-02-06T16:48:50.158Z,34.80
2023-02-06T16:51:24.157Z,14.70
2023-02-06T16:53:52.831Z,37.40
2023-02-06T16:56:21.950Z,11.82
2023-02-06T16:58:50.060Z,18.67
2023-02-06T17:01:25.244Z,14.73
2023-02-06T17:03:54.193Z,17.73
2023-02-06T17:06:24.894Z,12.80
2023-02-06T17:08:57.189Z,9.88
2023-02-06T17:11:25.124Z,14.40
2023-02-06T17:13:53.085Z,16.33
2023-02-06T17:16:22.861Z,16.55
2023-02-06T17:18:51.998Z,18.48
2023-02-06T17:21:23.599Z,11.40
2023-02-06T17:23:51.680Z,17.93
2023-02-06T17:26:22.201Z,12.13
2023-02-06T17:28:52.512Z,20.45
2023-02-06T17:31:20.419Z,14.40
2023-02-06T17:33:48.194Z,13.48
2023-02-06T17:36:29.258Z,9.13
2023-02-06T17:38:59.006Z,9.48
2023-02-06T17:41:27.726Z,10.68
2023-02-06T17:43:55.497Z,7.87
2023-02-06T17:46:23.655Z,13.95
2023-02-06T17:48:51.603Z,10.18
2023-02-06T17:51:19.281Z,10.88
2023-02-06T17:53:47.375Z,9.23
2023-02-06T17:56:15.315Z,9.40
2023-02-06T17:58:43.466Z,10.18
2023-02-06T18:01:16.992Z,11.48
2023-02-06T18:03:47.869Z,14.00
2023-02-06T18:06:16.839Z,8.43
2023-02-06T18:08:45.254Z,13.98
2023-02-06T18:11:21.560Z,11.20
2023-02-06T18:13:50.215Z,10.40
2023-02-06T18:16:22.281Z,10.38
2023-02-06T18:18:50.571Z,9.35
2023-02-06T18:21:20.266Z,12.73
2023-02-06T18:23:48.945Z,12.57
2023-02-06T18:26:17.751Z,12.15
2023-02-06T18:28:46.057Z,9.45
2023-02-06T18:31:29.321Z,11.07
2023-02-06T18:33:57.811Z,10.18
2023-02-06T18:36:26.524Z,11.25
2023-02-06T18:38:54.536Z,9.02
2023-02-06T18:41:41.581Z,7.47
2023-02-06T18:44:10.730Z,12.20
2023-02-06T18:46:39.511Z,12.63
2023-02-06T18:49:08.984Z,10.32
2023-02-06T18:51:37.046Z,12.32
2023-02-06T18:54:07.755Z,14.27
2023-02-06T18:56:38.974Z,14.18
2023-02-06T18:59:07.264Z,12.88
2023-02-06T19:01:35.658Z,13.40
2023-02-06T19:04:04.069Z,10.52
2023-02-06T19:06:35.567Z,11.73
2023-02-06T19:09:07.156Z,11.68
2023-02-06T19:11:36.643Z,10.98
2023-02-06T19:14:07.216Z,12.50
2023-02-06T19:16:38.491Z,9.23
2023-02-06T19:19:07.756Z,11.57
2023-02-06T19:21:35.734Z,15.35
2023-02-06T19:24:05.821Z,16.15
2023-02-06T19:26:34.127Z,11.65
2023-02-06T19:29:02.333Z,11.98
2023-02-06T19:31:31.991Z,14.68
2023-02-06T19:34:01.828Z,12.85
2023-02-06T19:36:31.499Z,12.50
2023-02-06T19:39:01.262Z,14.43
2023-02-06T19:41:31.625Z,15.23
2023-02-06T19:44:04.527Z,15.93
2023-02-06T19:46:33.663Z,12.07
2023-02-06T19:49:01.597Z,15.85
2023-02-06T19:51:33.016Z,13.32
2023-02-06T19:56:34.666Z,13.48
2023-02-06T19:59:06.428Z,13.90
2023-02-06T20:01:35.885Z,13.48
2023-02-06T20:04:04.252Z,18.02
2023-02-06T20:06:35.073Z,15.27
2023-02-06T20:11:33.706Z,16.60
2023-02-06T20:14:01.795Z,14.63
2023-02-06T20:16:32.367Z,13.35
2023-02-06T20:19:13.252Z,15.73
2023-02-06T20:21:44.269Z,10.93
2023-02-06T20:24:18.652Z,14.87
2023-02-06T20:26:47.162Z,12.75
2023-02-06T20:29:23.269Z,13.48
2023-02-06T20:31:52.098Z,12.13
2023-02-06T20:34:21.811Z,12.23
2023-02-06T20:36:50.844Z,14.75
2023-02-06T20:39:19.117Z,12.25
2023-02-06T20:41:49.597Z,12.70
2023-02-06T20:44:19.354Z,12.85
2023-02-06T20:46:48.221Z,10.75
2023-02-06T20:49:22.878Z,16.23
2023-02-06T20:51:51.778Z,13.68
2023-02-06T20:54:20.794Z,16.20
2023-02-06T20:56:48.986Z,10.48
2023-02-06T20:59:19.863Z,14.85
2023-02-06T21:01:48.228Z,11.50
2023-02-06T21:04:16.952Z,11.63
2023-02-06T21:06:47.965Z,11.18
2023-02-06T21:09:17.053Z,12.00
2023-02-06T21:11:47.699Z,12.23
2023-02-06T21:14:16.909Z,9.05
2023-02-06T21:16:45.082Z,9.98
2023-02-06T21:19:14.982Z,8.75
2023-02-06T21:21:45.880Z,13.88
2023-02-06T21:24:15.892Z,13.60
2023-02-06T21:26:44.013Z,13.65
2023-02-06T21:29:13.892Z,8.10
2023-02-06T21:31:42.475Z,11.98
2023-02-06T21:34:13.622Z,9.63
2023-02-06T21:36:41.841Z,9.25
2023-02-06T21:39:11.405Z,8.98
2023-02-06T21:41:39.053Z,16.87
2023-02-06T21:44:06.632Z,9.93
2023-02-06T21:46:34.797Z,11.27
2023-02-06T21:49:02.551Z,10.68
2023-02-06T21:51:31.496Z,11.05
2023-02-06T21:53:59.540Z,8.73
2023-02-06T21:56:28.613Z,8.90
2023-02-06T21:58:56.563Z,14.93
2023-02-06T22:01:30.216Z,10.82
2023-02-06T22:03:58.298Z,10.40
2023-02-06T22:06:26.987Z,12.00
2023-02-06T22:08:56.982Z,9.45
2023-02-06T22:11:27.616Z,12.57
2023-02-06T22:14:06.771Z,12.25
2023-02-06T22:16:35.199Z,10.65
2023-02-06T22:19:04.266Z,14.52
2023-02-06T22:21:32.978Z,13.57
2023-02-06T22:24:06.127Z,10.85
2023-02-06T22:26:38.578Z,11.75
2023-02-06T22:29:08.474Z,10.80
2023-02-06T22:31:36.975Z,10.30
2023-02-06T22:34:04.619Z,11.23
2023-02-06T22:36:33.502Z,14.00
2023-02-06T22:39:06.479Z,14.57
2023-02-06T22:41:37.887Z,10.02
2023-02-06T22:44:05.678Z,10.85
2023-02-06T22:46:38.650Z,10.18
2023-02-06T22:49:08.799Z,11.65
2023-02-06T22:51:38.220Z,13.52
2023-02-06T22:54:09.435Z,12.70
2023-02-06T22:56:39.057Z,10.75
2023-02-06T22:59:17.356Z,13.88
2023-02-06T23:01:54.176Z,13.30
2023-02-06T23:04:30.953Z,10.50
2023-02-06T23:06:58.543Z,11.38
2023-02-06T23:09:29.961Z,12.70
2023-02-06T23:11:58.496Z,13.32
2023-02-06T23:14:28.900Z,12.25
2023-02-06T23:16:57.001Z,13.23
2023-02-06T23:19:24.884Z,14.35
2023-02-06T23:21:53.638Z,12.10
2023-02-06T23:24:21.576Z,10.70
2023-02-06T23:26:50.966Z,12.73
2023-02-06T23:29:20.894Z,11.43
2023-02-06T23:31:49.127Z,13.27
2023-02-06T23:34:18.883Z,14.13
2023-02-06T23:36:47.432Z,12.93
2023-02-06T23:39:15.851Z,9.30
2023-02-06T23:41:43.508Z,17.98
2023-02-06T23:44:11.930Z,11.32
2023-02-06T23:46:40.502Z,14.50
2023-02-06T23:49:08.783Z,12.63
2023-02-06T23:51:38.137Z,11.75
2023-02-06T23:54:07.663Z,12.63
2023-02-06T23:56:36.034Z,14.50
2023-02-06T23:59:05.430Z,14.43
